sensor_id;sensor_type;location;lat;lon;timestamp;temperature;humidity
46652;DHT22;32377;52.182;5.398;2023-07-31T00:01:46;15.70;99.90
46652;DHT22;32377;52.182;5.398;2023-07-31T00:04:12;15.80;99.90
46652;DHT22;32377;52.182;5.398;2023-07-31T00:06:37;15.80;99.90
46652;DHT22;32377;52.182;5.398;2023-07-31T00:09:03;15.80;99.90
46652;DHT22;32377;52.182;5.398;2023-07-31T00:11:28;15.90;99.90
46652;DHT22;32377;52.182;5.398;2023-07-31T00:13:54;15.90;99.90
46652;DHT22;32377;52.182;5.398;2023-07-31T00:16:20;15.90;99.90
46652;DHT22;32377;52.182;5.398;2023-07-31T00:18:45;15.90;99.90
46652;DHT22;32377;52.182;5.398;2023-07-31T00:21:11;16.00;99.90
46652;DHT22;32377;52.182;5.398;2023-07-31T00:23:36;16.00;99.90
46652;DHT22;32377;52.182;5.398;2023-07-31T00:26:02;16.00;99.90
46652;DHT22;32377;52.182;5.398;2023-07-31T00:28:28;16.10;99.90
46652;DHT22;32377;52.182;5.398;2023-07-31T00:30:54;16.10;99.90
46652;DHT22;32377;52.182;5.398;2023-07-31T00:33:20;16.10;99.90
46652;DHT22;32377;52.182;5.398;2023-07-31T00:35:45;16.10;99.90
46652;DHT22;32377;52.182;5.398;2023-07-31T00:38:11;16.10;99.90
46652;DHT22;32377;52.182;5.398;2023-07-31T00:40:37;16.20;99.90
46652;DHT22;32377;52.182;5.398;2023-07-31T00:43:03;16.10;99.90
46652;DHT22;32377;52.182;5.398;2023-07-31T00:45:29;16.10;99.90
46652;DHT22;32377;52.182;5.398;2023-07-31T00:47:55;16.20;99.90
46652;DHT22;32377;52.182;5.398;2023-07-31T00:50:24;16.20;99.90
46652;DHT22;32377;52.182;5.398;2023-07-31T00:52:50;16.20;99.90
46652;DHT22;32377;52.182;5.398;2023-07-31T00:55:15;16.20;99.90
46652;DHT22;32377;52.182;5.398;2023-07-31T00:57:42;16.30;99.90
46652;DHT22;32377;52.182;5.398;2023-07-31T01:00:08;16.20;99.90
46652;DHT22;32377;52.182;5.398;2023-07-31T01:02:35;16.20;99.90
46652;DHT22;32377;52.182;5.398;2023-07-31T01:05:02;16.30;99.90
46652;DHT22;32377;52.182;5.398;2023-07-31T01:07:42;16.40;99.90
46652;DHT22;32377;52.182;5.398;2023-07-31T01:10:20;16.40;99.90
46652;DHT22;32377;52.182;5.398;2023-07-31T01:12:48;16.40;99.90
46652;DHT22;32377;52.182;5.398;2023-07-31T01:15:15;16.30;99.90
46652;DHT22;32377;52.182;5.398;2023-07-31T01:17:43;16.30;99.90
46652;DHT22;32377;52.182;5.398;2023-07-31T01:20:22;16.30;99.90
46652;DHT22;32377;52.182;5.398;2023-07-31T01:25:56;16.40;99.90
46652;DHT22;32377;52.182;5.398;2023-07-31T01:31:22;16.40;99.90
46652;DHT22;32377;52.182;5.398;2023-07-31T01:33:50;16.30;99.90
46652;DHT22;32377;52.182;5.398;2023-07-31T01:36:16;16.20;99.90
46652;DHT22;32377;52.182;5.398;2023-07-31T01:38:42;16.20;99.90
46652;DHT22;32377;52.182;5.398;2023-07-31T01:41:08;16.30;99.90
46652;DHT22;32377;52.182;5.398;2023-07-31T01:43:33;16.20;99.90
46652;DHT22;32377;52.182;5.398;2023-07-31T01:45:59;16.30;99.90
46652;DHT22;32377;52.182;5.398;2023-07-31T01:48:24;16.30;99.90
46652;DHT22;32377;52.182;5.398;2023-07-31T01:50:50;16.30;99.90
46652;DHT22;32377;52.182;5.398;2023-07-31T01:53:16;16.20;99.90
46652;DHT22;32377;52.182;5.398;2023-07-31T01:55:41;16.20;99.90
46652;DHT22;32377;52.182;5.398;2023-07-31T01:58:07;16.30;99.90
46652;DHT22;32377;52.182;5.398;2023-07-31T02:00:32;16.30;99.90
46652;DHT22;32377;52.182;5.398;2023-07-31T02:02:59;16.30;99.90
46652;DHT22;32377;52.182;5.398;2023-07-31T02:05:25;16.40;99.90
46652;DHT22;32377;52.182;5.398;2023-07-31T02:07:51;16.40;99.90
46652;DHT22;32377;52.182;5.398;2023-07-31T02:10:16;16.50;99.90
46652;DHT22;32377;52.182;5.398;2023-07-31T02:12:42;16.50;99.90
46652;DHT22;32377;52.182;5.398;2023-07-31T02:15:08;16.50;99.90
46652;DHT22;32377;52.182;5.398;2023-07-31T02:17:33;16.50;99.90
46652;DHT22;32377;52.182;5.398;2023-07-31T02:20:00;16.50;99.90
46652;DHT22;32377;52.182;5.398;2023-07-31T02:22:25;16.40;99.90
46652;DHT22;32377;52.182;5.398;2023-07-31T02:24:51;16.50;99.90
46652;DHT22;32377;52.182;5.398;2023-07-31T02:27:16;16.50;99.90
46652;DHT22;32377;52.182;5.398;2023-07-31T02:29:42;16.40;99.90
46652;DHT22;32377;52.182;5.398;2023-07-31T02:32:08;16.50;99.90
46652;DHT22;32377;52.182;5.398;2023-07-31T02:34:33;16.40;99.90
46652;DHT22;32377;52.182;5.398;2023-07-31T02:36:59;16.50;99.90
46652;DHT22;32377;52.182;5.398;2023-07-31T02:39:25;16.40;99.90
46652;DHT22;32377;52.182;5.398;2023-07-31T02:41:50;16.50;99.90
46652;DHT22;32377;52.182;5.398;2023-07-31T02:44:16;16.60;99.90
46652;DHT22;32377;52.182;5.398;2023-07-31T02:46:41;16.50;99.90
46652;DHT22;32377;52.182;5.398;2023-07-31T02:49:07;16.50;99.90
46652;DHT22;32377;52.182;5.398;2023-07-31T02:51:32;16.50;99.90
46652;DHT22;32377;52.182;5.398;2023-07-31T02:53:58;16.50;99.90
46652;DHT22;32377;52.182;5.398;2023-07-31T02:56:24;16.60;99.90
46652;DHT22;32377;52.182;5.398;2023-07-31T02:58:49;16.60;99.90
46652;DHT22;32377;52.182;5.398;2023-07-31T03:01:15;16.50;99.90
46652;DHT22;32377;52.182;5.398;2023-07-31T03:03:41;16.60;99.90
46652;DHT22;32377;52.182;5.398;2023-07-31T03:06:07;16.60;99.90
46652;DHT22;32377;52.182;5.398;2023-07-31T03:08:33;16.50;99.90
46652;DHT22;32377;52.182;5.398;2023-07-31T03:10:58;16.50;99.90
46652;DHT22;32377;52.182;5.398;2023-07-31T03:13:24;16.50;99.90
46652;DHT22;32377;52.182;5.398;2023-07-31T03:15:50;16.50;99.90
46652;DHT22;32377;52.182;5.398;2023-07-31T03:18:16;16.60;99.90
46652;DHT22;32377;52.182;5.398;2023-07-31T03:20:44;16.50;99.90
46652;DHT22;32377;52.182;5.398;2023-07-31T03:23:10;16.50;99.90
46652;DHT22;32377;52.182;5.398;2023-07-31T03:25:36;16.50;99.90
46652;DHT22;32377;52.182;5.398;2023-07-31T03:28:02;16.50;99.90
46652;DHT22;32377;52.182;5.398;2023-07-31T03:30:27;16.60;99.90
46652;DHT22;32377;52.182;5.398;2023-07-31T03:32:53;16.60;99.90
46652;DHT22;32377;52.182;5.398;2023-07-31T03:35:18;16.50;99.90
46652;DHT22;32377;52.182;5.398;2023-07-31T03:37:44;16.40;99.90
46652;DHT22;32377;52.182;5.398;2023-07-31T03:40:10;16.60;99.90
46652;DHT22;32377;52.182;5.398;2023-07-31T03:42:36;16.50;99.90
46652;DHT22;32377;52.182;5.398;2023-07-31T03:45:02;16.50;99.90
46652;DHT22;32377;52.182;5.398;2023-07-31T03:47:28;16.40;99.90
46652;DHT22;32377;52.182;5.398;2023-07-31T03:49:54;16.40;99.90
46652;DHT22;32377;52.182;5.398;2023-07-31T03:52:20;16.40;99.90
46652;DHT22;32377;52.182;5.398;2023-07-31T03:54:45;16.40;99.90
46652;DHT22;32377;52.182;5.398;2023-07-31T03:59:01;16.50;99.90
46652;DHT22;32377;52.182;5.398;2023-07-31T04:01:27;16.40;99.90
46652;DHT22;32377;52.182;5.398;2023-07-31T04:03:53;16.40;99.90
46652;DHT22;32377;52.182;5.398;2023-07-31T04:06:18;16.40;99.90
46652;DHT22;32377;52.182;5.398;2023-07-31T04:08:44;16.40;99.90
46652;DHT22;32377;52.182;5.398;2023-07-31T04:11:10;16.40;99.90
46652;DHT22;32377;52.182;5.398;2023-07-31T04:13:37;16.40;99.90
46652;DHT22;32377;52.182;5.398;2023-07-31T04:16:03;16.30;99.90
46652;DHT22;32377;52.182;5.398;2023-07-31T04:18:28;16.30;99.90
46652;DHT22;32377;52.182;5.398;2023-07-31T04:20:56;16.40;99.90
46652;DHT22;32377;52.182;5.398;2023-07-31T04:23:24;16.30;99.90
46652;DHT22;32377;52.182;5.398;2023-07-31T04:25:50;16.40;99.90
46652;DHT22;32377;52.182;5.398;2023-07-31T04:28:15;16.40;99.90
46652;DHT22;32377;52.182;5.398;2023-07-31T04:30:41;16.30;99.90
46652;DHT22;32377;52.182;5.398;2023-07-31T04:33:06;16.30;99.90
46652;DHT22;32377;52.182;5.398;2023-07-31T04:35:32;16.40;99.90
46652;DHT22;32377;52.182;5.398;2023-07-31T04:37:58;16.20;99.90
46652;DHT22;32377;52.182;5.398;2023-07-31T04:40:23;16.30;99.90
46652;DHT22;32377;52.182;5.398;2023-07-31T04:42:49;16.20;99.90
46652;DHT22;32377;52.182;5.398;2023-07-31T04:45:15;16.30;99.90
46652;DHT22;32377;52.182;5.398;2023-07-31T04:47:40;16.20;99.90
46652;DHT22;32377;52.182;5.398;2023-07-31T04:50:06;16.30;99.90
46652;DHT22;32377;52.182;5.398;2023-07-31T04:52:32;16.30;99.90
46652;DHT22;32377;52.182;5.398;2023-07-31T04:54:58;16.20;99.90
46652;DHT22;32377;52.182;5.398;2023-07-31T04:57:23;16.20;99.90
46652;DHT22;32377;52.182;5.398;2023-07-31T04:59:49;16.20;99.90
46652;DHT22;32377;52.182;5.398;2023-07-31T05:02:15;16.30;99.90
46652;DHT22;32377;52.182;5.398;2023-07-31T05:04:40;16.30;99.90
46652;DHT22;32377;52.182;5.398;2023-07-31T05:07:06;16.20;99.90
46652;DHT22;32377;52.182;5.398;2023-07-31T05:09:32;16.20;99.90
46652;DHT22;32377;52.182;5.398;2023-07-31T05:11:57;16.10;99.90
46652;DHT22;32377;52.182;5.398;2023-07-31T05:14:23;16.20;99.90
46652;DHT22;32377;52.182;5.398;2023-07-31T05:16:48;16.10;99.90
46652;DHT22;32377;52.182;5.398;2023-07-31T05:19:14;16.10;99.90
46652;DHT22;32377;52.182;5.398;2023-07-31T05:21:40;16.20;99.90
46652;DHT22;32377;52.182;5.398;2023-07-31T05:24:06;16.10;99.90
46652;DHT22;32377;52.182;5.398;2023-07-31T05:26:31;16.10;99.90
46652;DHT22;32377;52.182;5.398;2023-07-31T05:28:57;16.20;99.90
46652;DHT22;32377;52.182;5.398;2023-07-31T05:31:23;16.10;99.90
46652;DHT22;32377;52.182;5.398;2023-07-31T05:33:50;16.10;99.90
46652;DHT22;32377;52.182;5.398;2023-07-31T05:36:16;16.10;99.90
46652;DHT22;32377;52.182;5.398;2023-07-31T05:38:42;16.10;99.90
46652;DHT22;32377;52.182;5.398;2023-07-31T05:41:11;16.10;99.90
46652;DHT22;32377;52.182;5.398;2023-07-31T05:43:36;16.20;99.90
46652;DHT22;32377;52.182;5.398;2023-07-31T05:46:02;16.10;99.90
46652;DHT22;32377;52.182;5.398;2023-07-31T05:48:27;16.20;99.90
46652;DHT22;32377;52.182;5.398;2023-07-31T05:50:53;16.20;99.90
46652;DHT22;32377;52.182;5.398;2023-07-31T05:53:19;16.20;99.90
46652;DHT22;32377;52.182;5.398;2023-07-31T05:55:44;16.10;99.90
46652;DHT22;32377;52.182;5.398;2023-07-31T05:58:10;16.10;99.90
46652;DHT22;32377;52.182;5.398;2023-07-31T06:00:36;16.20;99.90
46652;DHT22;32377;52.182;5.398;2023-07-31T06:03:01;16.10;99.90
46652;DHT22;32377;52.182;5.398;2023-07-31T06:05:27;16.20;99.90
46652;DHT22;32377;52.182;5.398;2023-07-31T06:07:55;16.10;99.90
46652;DHT22;32377;52.182;5.398;2023-07-31T06:10:21;16.10;99.90
46652;DHT22;32377;52.182;5.398;2023-07-31T06:12:46;16.10;99.90
46652;DHT22;32377;52.182;5.398;2023-07-31T06:15:12;16.20;99.90
46652;DHT22;32377;52.182;5.398;2023-07-31T06:17:38;16.30;99.90
46652;DHT22;32377;52.182;5.398;2023-07-31T06:20:05;16.20;99.90
46652;DHT22;32377;52.182;5.398;2023-07-31T06:22:31;16.30;99.90
46652;DHT22;32377;52.182;5.398;2023-07-31T06:24:57;16.20;99.90
46652;DHT22;32377;52.182;5.398;2023-07-31T06:27:23;16.20;99.90
46652;DHT22;32377;52.182;5.398;2023-07-31T06:29:48;16.30;99.90
46652;DHT22;32377;52.182;5.398;2023-07-31T06:32:14;16.30;99.90
46652;DHT22;32377;52.182;5.398;2023-07-31T06:34:40;16.20;99.90
46652;DHT22;32377;52.182;5.398;2023-07-31T06:37:05;16.20;99.90
46652;DHT22;32377;52.182;5.398;2023-07-31T06:39:31;16.20;99.90
46652;DHT22;32377;52.182;5.398;2023-07-31T06:41:57;16.30;99.90
46652;DHT22;32377;52.182;5.398;2023-07-31T06:44:23;16.40;99.90
46652;DHT22;32377;52.182;5.398;2023-07-31T06:46:48;16.30;99.90
46652;DHT22;32377;52.182;5.398;2023-07-31T06:49:14;16.50;99.90
46652;DHT22;32377;52.182;5.398;2023-07-31T06:51:42;16.40;99.90
46652;DHT22;32377;52.182;5.398;2023-07-31T06:54:09;16.40;99.90
46652;DHT22;32377;52.182;5.398;2023-07-31T06:56:35;16.50;99.90
46652;DHT22;32377;52.182;5.398;2023-07-31T06:59:01;16.50;99.90
46652;DHT22;32377;52.182;5.398;2023-07-31T07:01:26;16.50;99.90
46652;DHT22;32377;52.182;5.398;2023-07-31T07:03:53;16.40;99.90
46652;DHT22;32377;52.182;5.398;2023-07-31T07:06:18;16.60;99.90
46652;DHT22;32377;52.182;5.398;2023-07-31T07:08:44;16.60;99.90
46652;DHT22;32377;52.182;5.398;2023-07-31T07:11:10;16.70;99.90
46652;DHT22;32377;52.182;5.398;2023-07-31T07:13:36;16.60;99.90
46652;DHT22;32377;52.182;5.398;2023-07-31T07:16:02;16.60;99.90
46652;DHT22;32377;52.182;5.398;2023-07-31T07:18:27;16.70;99.90
46652;DHT22;32377;52.182;5.398;2023-07-31T07:20:54;16.80;99.90
46652;DHT22;32377;52.182;5.398;2023-07-31T07:23:20;16.80;99.90
46652;DHT22;32377;52.182;5.398;2023-07-31T07:25:46;16.80;99.90
46652;DHT22;32377;52.182;5.398;2023-07-31T07:28:13;16.80;99.90
46652;DHT22;32377;52.182;5.398;2023-07-31T07:30:39;16.80;99.90
46652;DHT22;32377;52.182;5.398;2023-07-31T07:33:05;16.90;99.90
46652;DHT22;32377;52.182;5.398;2023-07-31T07:35:33;16.90;99.90
46652;DHT22;32377;52.182;5.398;2023-07-31T07:37:59;16.90;99.90
46652;DHT22;32377;52.182;5.398;2023-07-31T07:40:26;16.80;99.90
46652;DHT22;32377;52.182;5.398;2023-07-31T07:42:51;16.90;99.90
46652;DHT22;32377;52.182;5.398;2023-07-31T07:45:17;16.90;99.90
46652;DHT22;32377;52.182;5.398;2023-07-31T07:47:43;17.00;99.90
46652;DHT22;32377;52.182;5.398;2023-07-31T07:50:09;17.00;99.90
46652;DHT22;32377;52.182;5.398;2023-07-31T07:52:34;17.00;99.90
46652;DHT22;32377;52.182;5.398;2023-07-31T07:55:00;17.00;99.90
46652;DHT22;32377;52.182;5.398;2023-07-31T07:57:26;17.10;99.90
46652;DHT22;32377;52.182;5.398;2023-07-31T07:59:52;17.10;99.90
46652;DHT22;32377;52.182;5.398;2023-07-31T08:02:17;17.20;99.90
46652;DHT22;32377;52.182;5.398;2023-07-31T08:04:43;17.10;99.90
46652;DHT22;32377;52.182;5.398;2023-07-31T08:07:11;17.20;99.90
46652;DHT22;32377;52.182;5.398;2023-07-31T08:09:37;17.20;99.90
46652;DHT22;32377;52.182;5.398;2023-07-31T08:12:04;17.30;99.90
46652;DHT22;32377;52.182;5.398;2023-07-31T08:14:30;17.30;99.90
46652;DHT22;32377;52.182;5.398;2023-07-31T08:16:56;17.40;99.90
46652;DHT22;32377;52.182;5.398;2023-07-31T08:19:21;17.40;99.90
46652;DHT22;32377;52.182;5.398;2023-07-31T08:21:47;17.50;99.90
46652;DHT22;32377;52.182;5.398;2023-07-31T08:24:12;17.50;99.90
46652;DHT22;32377;52.182;5.398;2023-07-31T08:26:38;17.60;99.90
46652;DHT22;32377;52.182;5.398;2023-07-31T08:29:04;17.60;99.90
46652;DHT22;32377;52.182;5.398;2023-07-31T08:31:29;17.60;99.90
46652;DHT22;32377;52.182;5.398;2023-07-31T08:33:56;17.60;99.90
46652;DHT22;32377;52.182;5.398;2023-07-31T08:36:21;17.60;99.90
46652;DHT22;32377;52.182;5.398;2023-07-31T08:38:47;17.60;99.90
46652;DHT22;32377;52.182;5.398;2023-07-31T08:41:13;17.70;99.90
46652;DHT22;32377;52.182;5.398;2023-07-31T08:43:39;17.70;99.90
46652;DHT22;32377;52.182;5.398;2023-07-31T08:46:05;17.60;99.90
46652;DHT22;32377;52.182;5.398;2023-07-31T08:48:32;17.70;99.90
46652;DHT22;32377;52.182;5.398;2023-07-31T08:50:58;17.70;99.90
46652;DHT22;32377;52.182;5.398;2023-07-31T08:53:24;17.80;99.90
46652;DHT22;32377;52.182;5.398;2023-07-31T08:55:53;17.90;99.90
46652;DHT22;32377;52.182;5.398;2023-07-31T08:58:20;17.90;99.90
46652;DHT22;32377;52.182;5.398;2023-07-31T09:00:47;17.90;99.90
46652;DHT22;32377;52.182;5.398;2023-07-31T09:03:14;17.90;99.90
46652;DHT22;32377;52.182;5.398;2023-07-31T09:05:43;18.00;99.90
46652;DHT22;32377;52.182;5.398;2023-07-31T09:08:11;18.20;99.90
46652;DHT22;32377;52.182;5.398;2023-07-31T09:10:44;18.30;99.90
46652;DHT22;32377;52.182;5.398;2023-07-31T09:13:16;18.30;99.90
46652;DHT22;32377;52.182;5.398;2023-07-31T09:15:46;18.40;99.90
46652;DHT22;32377;52.182;5.398;2023-07-31T09:18:11;18.40;99.90
46652;DHT22;32377;52.182;5.398;2023-07-31T09:20:38;18.40;99.90
46652;DHT22;32377;52.182;5.398;2023-07-31T09:23:11;18.40;99.90
46652;DHT22;32377;52.182;5.398;2023-07-31T09:25:39;18.40;99.90
46652;DHT22;32377;52.182;5.398;2023-07-31T09:28:07;18.40;99.90
46652;DHT22;32377;52.182;5.398;2023-07-31T09:30:47;18.50;99.90
46652;DHT22;32377;52.182;5.398;2023-07-31T09:33:13;18.60;99.90
46652;DHT22;32377;52.182;5.398;2023-07-31T09:35:39;18.60;99.90
46652;DHT22;32377;52.182;5.398;2023-07-31T09:38:10;18.70;99.90
46652;DHT22;32377;52.182;5.398;2023-07-31T09:40:44;18.70;99.90
46652;DHT22;32377;52.182;5.398;2023-07-31T09:43:11;18.70;99.90
46652;DHT22;32377;52.182;5.398;2023-07-31T09:45:42;18.80;99.90
46652;DHT22;32377;52.182;5.398;2023-07-31T09:48:14;19.00;99.90
46652;DHT22;32377;52.182;5.398;2023-07-31T09:50:47;19.00;99.90
46652;DHT22;32377;52.182;5.398;2023-07-31T09:53:14;19.00;99.90
46652;DHT22;32377;52.182;5.398;2023-07-31T09:58:59;18.90;99.90
46652;DHT22;32377;52.182;5.398;2023-07-31T10:01:25;18.90;99.90
46652;DHT22;32377;52.182;5.398;2023-07-31T10:03:50;19.00;99.90
46652;DHT22;32377;52.182;5.398;2023-07-31T10:06:17;18.70;99.90
46652;DHT22;32377;52.182;5.398;2023-07-31T10:08:46;18.80;99.90
46652;DHT22;32377;52.182;5.398;2023-07-31T10:11:13;18.80;99.90
46652;DHT22;32377;52.182;5.398;2023-07-31T10:13:41;18.80;99.90
46652;DHT22;32377;52.182;5.398;2023-07-31T10:16:06;18.90;99.90
46652;DHT22;32377;52.182;5.398;2023-07-31T10:18:33;18.90;99.90
46652;DHT22;32377;52.182;5.398;2023-07-31T10:21:00;18.90;99.90
46652;DHT22;32377;52.182;5.398;2023-07-31T10:23:26;18.90;99.90
46652;DHT22;32377;52.182;5.398;2023-07-31T10:25:53;18.80;99.90
46652;DHT22;32377;52.182;5.398;2023-07-31T10:28:22;18.90;99.90
46652;DHT22;32377;52.182;5.398;2023-07-31T10:30:50;19.10;99.90
46652;DHT22;32377;52.182;5.398;2023-07-31T10:33:17;19.20;99.90
46652;DHT22;32377;52.182;5.398;2023-07-31T10:35:43;19.20;99.90
46652;DHT22;32377;52.182;5.398;2023-07-31T10:38:10;19.10;99.90
46652;DHT22;32377;52.182;5.398;2023-07-31T10:40:37;19.00;99.90
46652;DHT22;32377;52.182;5.398;2023-07-31T10:43:03;19.00;99.90
46652;DHT22;32377;52.182;5.398;2023-07-31T10:45:39;19.00;99.90
46652;DHT22;32377;52.182;5.398;2023-07-31T10:48:12;19.00;99.90
46652;DHT22;32377;52.182;5.398;2023-07-31T10:50:49;19.10;99.90
46652;DHT22;32377;52.182;5.398;2023-07-31T10:53:32;19.20;99.90
46652;DHT22;32377;52.182;5.398;2023-07-31T10:56:05;19.00;99.90
46652;DHT22;32377;52.182;5.398;2023-07-31T10:58:31;18.90;99.90
46652;DHT22;32377;52.182;5.398;2023-07-31T11:01:06;18.90;99.90
46652;DHT22;32377;52.182;5.398;2023-07-31T11:03:43;18.80;99.90
46652;DHT22;32377;52.182;5.398;2023-07-31T11:06:09;18.90;99.90
46652;DHT22;32377;52.182;5.398;2023-07-31T11:08:47;18.90;99.90
46652;DHT22;32377;52.182;5.398;2023-07-31T11:11:18;18.80;99.90
46652;DHT22;32377;52.182;5.398;2023-07-31T11:13:49;18.90;99.90
46652;DHT22;32377;52.182;5.398;2023-07-31T11:16:15;18.90;99.90
46652;DHT22;32377;52.182;5.398;2023-07-31T11:18:45;19.00;99.90
46652;DHT22;32377;52.182;5.398;2023-07-31T11:21:19;19.00;99.90
46652;DHT22;32377;52.182;5.398;2023-07-31T11:23:57;19.20;99.90
46652;DHT22;32377;52.182;5.398;2023-07-31T11:26:24;19.50;99.90
46652;DHT22;32377;52.182;5.398;2023-07-31T11:28:51;19.50;99.90
46652;DHT22;32377;52.182;5.398;2023-07-31T11:31:17;19.40;99.90
46652;DHT22;32377;52.182;5.398;2023-07-31T11:33:43;19.30;99.90
46652;DHT22;32377;52.182;5.398;2023-07-31T11:36:17;19.30;99.90
46652;DHT22;32377;52.182;5.398;2023-07-31T11:38:42;19.30;99.90
46652;DHT22;32377;52.182;5.398;2023-07-31T11:41:08;19.20;99.90
46652;DHT22;32377;52.182;5.398;2023-07-31T11:43:34;19.40;99.90
46652;DHT22;32377;52.182;5.398;2023-07-31T11:46:02;19.50;99.90
46652;DHT22;32377;52.182;5.398;2023-07-31T11:48:36;19.60;99.90
46652;DHT22;32377;52.182;5.398;2023-07-31T11:51:07;19.60;99.90
46652;DHT22;32377;52.182;5.398;2023-07-31T11:53:41;19.60;99.90
46652;DHT22;32377;52.182;5.398;2023-07-31T11:56:09;19.60;99.90
46652;DHT22;32377;52.182;5.398;2023-07-31T11:58:37;19.40;99.90
46652;DHT22;32377;52.182;5.398;2023-07-31T12:01:04;19.30;99.90
46652;DHT22;32377;52.182;5.398;2023-07-31T12:03:31;19.20;99.90
46652;DHT22;32377;52.182;5.398;2023-07-31T12:05:58;19.20;99.90
46652;DHT22;32377;52.182;5.398;2023-07-31T12:08:24;19.10;99.90
46652;DHT22;32377;52.182;5.398;2023-07-31T12:10:51;19.00;99.90
46652;DHT22;32377;52.182;5.398;2023-07-31T12:13:25;19.00;99.90
46652;DHT22;32377;52.182;5.398;2023-07-31T12:15:59;19.00;99.90
46652;DHT22;32377;52.182;5.398;2023-07-31T12:18:27;19.00;99.90
46652;DHT22;32377;52.182;5.398;2023-07-31T12:20:58;19.00;99.90
46652;DHT22;32377;52.182;5.398;2023-07-31T12:23:26;18.90;99.90
46652;DHT22;32377;52.182;5.398;2023-07-31T12:26:04;19.00;99.90
46652;DHT22;32377;52.182;5.398;2023-07-31T12:28:40;19.00;99.90
46652;DHT22;32377;52.182;5.398;2023-07-31T12:31:08;19.00;99.90
46652;DHT22;32377;52.182;5.398;2023-07-31T12:33:36;19.10;99.90
46652;DHT22;32377;52.182;5.398;2023-07-31T12:36:03;19.10;99.90
46652;DHT22;32377;52.182;5.398;2023-07-31T12:38:30;19.00;99.90
46652;DHT22;32377;52.182;5.398;2023-07-31T12:40:56;18.90;99.90
46652;DHT22;32377;52.182;5.398;2023-07-31T12:43:21;18.80;99.90
46652;DHT22;32377;52.182;5.398;2023-07-31T12:45:47;18.80;99.90
46652;DHT22;32377;52.182;5.398;2023-07-31T12:48:13;18.80;99.90
46652;DHT22;32377;52.182;5.398;2023-07-31T12:50:39;18.80;99.90
46652;DHT22;32377;52.182;5.398;2023-07-31T12:53:05;18.80;99.90
46652;DHT22;32377;52.182;5.398;2023-07-31T12:55:31;18.80;99.90
46652;DHT22;32377;52.182;5.398;2023-07-31T12:57:59;18.90;99.90
46652;DHT22;32377;52.182;5.398;2023-07-31T13:00:25;19.00;99.90
46652;DHT22;32377;52.182;5.398;2023-07-31T13:02:51;19.10;99.90
46652;DHT22;32377;52.182;5.398;2023-07-31T13:05:17;19.10;99.90
46652;DHT22;32377;52.182;5.398;2023-07-31T13:07:45;19.10;99.90
46652;DHT22;32377;52.182;5.398;2023-07-31T13:10:10;19.10;99.90
46652;DHT22;32377;52.182;5.398;2023-07-31T13:12:36;19.30;99.90
46652;DHT22;32377;52.182;5.398;2023-07-31T13:15:02;19.50;99.90
46652;DHT22;32377;52.182;5.398;2023-07-31T13:17:27;19.70;99.90
46652;DHT22;32377;52.182;5.398;2023-07-31T13:19:53;19.70;99.90
46652;DHT22;32377;52.182;5.398;2023-07-31T13:22:18;19.70;99.90
46652;DHT22;32377;52.182;5.398;2023-07-31T13:24:44;19.80;99.90
46652;DHT22;32377;52.182;5.398;2023-07-31T13:27:10;19.80;99.90
46652;DHT22;32377;52.182;5.398;2023-07-31T13:29:35;19.70;99.90
46652;DHT22;32377;52.182;5.398;2023-07-31T13:32:01;19.70;99.90
46652;DHT22;32377;52.182;5.398;2023-07-31T13:34:27;19.70;99.90
46652;DHT22;32377;52.182;5.398;2023-07-31T13:36:54;19.80;99.90
46652;DHT22;32377;52.182;5.398;2023-07-31T13:39:20;19.80;99.90
46652;DHT22;32377;52.182;5.398;2023-07-31T13:41:46;19.80;99.90
46652;DHT22;32377;52.182;5.398;2023-07-31T13:44:11;19.70;99.90
46652;DHT22;32377;52.182;5.398;2023-07-31T13:46:37;19.70;99.90
46652;DHT22;32377;52.182;5.398;2023-07-31T13:49:02;19.70;99.90
46652;DHT22;32377;52.182;5.398;2023-07-31T13:51:28;19.50;99.90
46652;DHT22;32377;52.182;5.398;2023-07-31T13:53:54;19.50;99.90
46652;DHT22;32377;52.182;5.398;2023-07-31T13:56:19;19.50;99.90
46652;DHT22;32377;52.182;5.398;2023-07-31T13:58:45;19.50;99.90
46652;DHT22;32377;52.182;5.398;2023-07-31T14:01:10;19.60;99.90
46652;DHT22;32377;52.182;5.398;2023-07-31T14:03:36;19.50;99.90
46652;DHT22;32377;52.182;5.398;2023-07-31T14:06:02;19.60;99.90
46652;DHT22;32377;52.182;5.398;2023-07-31T14:08:27;19.60;99.90
46652;DHT22;32377;52.182;5.398;2023-07-31T14:10:55;19.40;99.90
46652;DHT22;32377;52.182;5.398;2023-07-31T14:13:20;19.40;99.90
46652;DHT22;32377;52.182;5.398;2023-07-31T14:15:46;19.30;99.90
46652;DHT22;32377;52.182;5.398;2023-07-31T14:18:12;19.20;99.90
46652;DHT22;32377;52.182;5.398;2023-07-31T14:20:37;19.10;99.90
46652;DHT22;32377;52.182;5.398;2023-07-31T14:23:03;19.20;99.90
46652;DHT22;32377;52.182;5.398;2023-07-31T14:25:28;19.10;99.90
46652;DHT22;32377;52.182;5.398;2023-07-31T14:27:54;19.10;99.90
46652;DHT22;32377;52.182;5.398;2023-07-31T14:30:20;19.10;99.90
46652;DHT22;32377;52.182;5.398;2023-07-31T14:32:46;19.10;99.90
46652;DHT22;32377;52.182;5.398;2023-07-31T14:35:12;19.10;99.90
46652;DHT22;32377;52.182;5.398;2023-07-31T14:37:42;19.10;99.90
46652;DHT22;32377;52.182;5.398;2023-07-31T14:40:08;19.20;99.90
46652;DHT22;32377;52.182;5.398;2023-07-31T14:42:35;19.20;99.90
46652;DHT22;32377;52.182;5.398;2023-07-31T14:45:01;19.00;99.90
46652;DHT22;32377;52.182;5.398;2023-07-31T14:47:27;19.10;99.90
46652;DHT22;32377;52.182;5.398;2023-07-31T14:49:52;19.10;99.90
46652;DHT22;32377;52.182;5.398;2023-07-31T14:52:18;19.10;99.90
46652;DHT22;32377;52.182;5.398;2023-07-31T14:54:45;19.00;99.90
46652;DHT22;32377;52.182;5.398;2023-07-31T14:57:10;18.90;99.90
46652;DHT22;32377;52.182;5.398;2023-07-31T14:59:36;18.90;99.90
46652;DHT22;32377;52.182;5.398;2023-07-31T15:02:02;18.90;99.90
46652;DHT22;32377;52.182;5.398;2023-07-31T15:04:28;18.90;99.90
46652;DHT22;32377;52.182;5.398;2023-07-31T15:06:54;18.80;99.90
46652;DHT22;32377;52.182;5.398;2023-07-31T15:09:20;18.80;99.90
46652;DHT22;32377;52.182;5.398;2023-07-31T15:11:45;18.70;99.90
46652;DHT22;32377;52.182;5.398;2023-07-31T15:14:11;18.80;99.90
46652;DHT22;32377;52.182;5.398;2023-07-31T15:16:37;18.80;99.90
46652;DHT22;32377;52.182;5.398;2023-07-31T15:19:02;18.60;99.90
46652;DHT22;32377;52.182;5.398;2023-07-31T15:21:28;18.70;99.90
46652;DHT22;32377;52.182;5.398;2023-07-31T15:23:53;18.70;99.90
46652;DHT22;32377;52.182;5.398;2023-07-31T15:26:19;18.60;99.90
46652;DHT22;32377;52.182;5.398;2023-07-31T15:28:50;18.50;99.90
46652;DHT22;32377;52.182;5.398;2023-07-31T15:31:20;18.50;99.90
46652;DHT22;32377;52.182;5.398;2023-07-31T15:33:47;18.50;99.90
46652;DHT22;32377;52.182;5.398;2023-07-31T15:36:13;18.50;99.90
46652;DHT22;32377;52.182;5.398;2023-07-31T15:38:39;18.50;99.90